Time;durP1;ratioP1;P1;durP2;ratioP2;P2;SDS_P1;SDS_P2;PMS_P1;PMS_P2;Temp;Humidity;BMP_temperature;BMP_pressure;BME280_temperature;BME280_humidity;BME280_pressure;Samples;Min_cycle;Max_cycle;Signal;HPM_P1;HPM_P2
2023/04/01 00:00:13;;;;;;;3.30;3.10;;;11.10;99.90;;;;;;6315941;28;20902;-61
2023/04/01 00:03:16;;;;;;;3.30;2.83;;;11.10;99.90;;;;;;6325304;28;20475;-61
2023/04/01 00:06:21;;;;;;;3.27;2.93;;;11.10;99.90;;;;;;6324827;28;20483;-62
2023/04/01 00:09:24;;;;;;;3.33;3.13;;;11.10;99.90;;;;;;6324731;28;20489;-61
2023/04/01 00:12:31;;;;;;;7.23;3.90;;;11.10;99.90;;;;;;6325088;28;20483;-62
2023/04/01 00:15:35;;;;;;;4.00;3.70;;;11.00;99.90;;;;;;6324751;28;20479;-62
2023/04/01 00:18:39;;;;;;;3.83;3.53;;;11.00;99.90;;;;;;6325279;28;20472;-62
2023/04/01 00:21:43;;;;;;;5.40;4.90;;;11.00;99.90;;;;;;6324114;28;20479;-61
2023/04/01 00:24:47;;;;;;;3.10;2.90;;;11.00;99.90;;;;;;6324544;28;20464;-62
2023/04/01 00:27:50;;;;;;;3.57;3.33;;;11.00;99.90;;;;;;6324917;28;20482;-59
2023/04/01 00:30:53;;;;;;;3.00;2.70;;;11.00;99.90;;;;;;6324477;28;20517;-60
2023/04/01 00:33:57;;;;;;;3.63;3.23;;;11.00;99.90;;;;;;6324902;28;20479;-60
2023/04/01 00:37:02;;;;;;;7.67;3.03;;;11.00;99.90;;;;;;6324421;28;20487;-60
2023/04/01 00:40:06;;;;;;;2.80;2.60;;;11.00;99.90;;;;;;6324141;28;20479;-61
2023/04/01 00:43:14;;;;;;;3.83;3.53;;;11.00;99.90;;;;;;6324430;28;20477;-61
2023/04/01 00:46:17;;;;;;;3.37;2.80;;;11.00;99.90;;;;;;6324796;28;20468;-61
2023/04/01 00:49:25;;;;;;;4.33;3.47;;;10.90;99.90;;;;;;6323950;28;20829;-61
2023/04/01 00:52:29;;;;;;;3.57;3.27;;;10.90;99.90;;;;;;6324521;28;20542;-61
2023/04/01 00:55:37;;;;;;;3.40;3.20;;;10.80;99.90;;;;;;6323680;28;20475;-61
2023/04/01 00:58:43;;;;;;;3.80;3.50;;;10.80;99.90;;;;;;6324240;28;20490;-61
2023/04/01 01:01:46;;;;;;;3.40;3.07;;;10.80;99.90;;;;;;6324074;28;20460;-61
2023/04/01 01:04:49;;;;;;;3.53;3.23;;;10.80;99.90;;;;;;6319088;28;20468;-61
2023/04/01 01:08:04;;;;;;;3.70;3.40;;;10.70;99.90;;;;;;6323698;28;20479;-61
2023/04/01 01:11:11;;;;;;;5.63;3.70;;;10.70;99.90;;;;;;6323936;28;20483;-61
2023/04/01 01:14:25;;;;;;;4.27;3.10;;;10.70;99.90;;;;;;6323785;28;20476;-61
2023/04/01 01:17:40;;;;;;;4.23;3.83;;;10.70;99.90;;;;;;6323842;28;20579;-61
2023/04/01 01:21:19;;;;;;;4.20;3.30;;;10.60;99.90;;;;;;6323358;28;20790;-61
2023/04/01 01:24:58;;;;;;;3.77;3.30;;;10.60;99.90;;;;;;6324317;28;20527;-61
2023/04/01 01:28:14;;;;;;;3.80;3.50;;;10.60;99.90;;;;;;6310841;28;20482;-61
2023/04/01 01:31:23;;;;;;;3.37;2.80;;;10.50;99.90;;;;;;6324607;28;20487;-61
2023/04/01 01:34:35;;;;;;;3.53;3.23;;;10.40;99.90;;;;;;6328680;28;20468;-62
2023/04/01 01:37:42;;;;;;;3.80;3.37;;;10.50;99.90;;;;;;6328721;28;20946;-61
2023/04/01 01:40:51;;;;;;;3.33;3.10;;;10.40;99.90;;;;;;6328828;28;20476;-61
2023/04/01 01:43:57;;;;;;;3.30;3.00;;;10.30;99.90;;;;;;6328470;28;20860;-62
2023/04/01 01:47:01;;;;;;;4.30;3.57;;;10.30;99.90;;;;;;6328525;28;20491;-61
2023/04/01 01:50:06;;;;;;;3.20;3.00;;;10.30;99.90;;;;;;6328157;28;20475;-61
2023/04/01 01:53:13;;;;;;;4.07;3.70;;;10.30;99.90;;;;;;6328240;28;20475;-61
2023/04/01 01:56:21;;;;;;;4.73;2.90;;;10.30;99.90;;;;;;6327584;28;20492;-61
2023/04/01 01:59:26;;;;;;;3.43;3.23;;;10.30;99.90;;;;;;6328409;28;20980;-61
2023/04/01 02:02:31;;;;;;;3.30;3.10;;;10.30;99.90;;;;;;6327654;28;20444;-61
2023/04/01 02:05:36;;;;;;;2.63;2.43;;;10.30;99.90;;;;;;6327718;28;20456;-61
2023/04/01 02:08:44;;;;;;;2.83;2.63;;;10.30;99.90;;;;;;6318637;28;20448;-61
2023/04/01 02:11:51;;;;;;;3.80;3.50;;;10.30;99.90;;;;;;6328225;28;20487;-61
2023/04/01 02:14:58;;;;;;;3.67;2.97;;;10.20;99.90;;;;;;6327893;28;20460;-61
2023/04/01 02:18:03;;;;;;;4.10;2.70;;;10.20;99.90;;;;;;6327839;28;20941;-61
2023/04/01 02:21:08;;;;;;;3.97;2.57;;;10.20;99.90;;;;;;6327370;28;20844;-61
2023/04/01 02:24:15;;;;;;;2.80;2.60;;;10.10;99.90;;;;;;6327373;28;20803;-61
2023/04/01 02:27:20;;;;;;;4.00;3.10;;;10.10;99.90;;;;;;6327890;28;20487;-61
2023/04/01 02:30:23;;;;;;;3.40;3.10;;;10.00;99.90;;;;;;6327582;28;20472;-61
2023/04/01 02:33:28;;;;;;;5.00;3.10;;;9.90;99.90;;;;;;6327527;28;20479;-61
2023/04/01 02:36:31;;;;;;;4.80;3.67;;;9.90;99.90;;;;;;6327145;28;20468;-61
2023/04/01 02:39:36;;;;;;;3.10;2.80;;;10.00;99.90;;;;;;6327508;28;20468;-61
2023/04/01 02:42:39;;;;;;;3.67;3.30;;;10.00;99.90;;;;;;6325935;28;20472;-61
2023/04/01 02:45:42;;;;;;;4.50;3.10;;;9.90;99.90;;;;;;6326628;28;20814;-61
2023/04/01 02:48:45;;;;;;;3.70;2.90;;;10.00;99.90;;;;;;6326979;28;20472;-61
2023/04/01 02:51:48;;;;;;;7.40;3.00;;;10.00;99.90;;;;;;6327471;28;20466;-59
2023/04/01 02:54:53;;;;;;;4.87;3.33;;;10.10;99.90;;;;;;6325037;28;20525;-59
2023/04/01 02:57:56;;;;;;;3.20;2.90;;;10.00;99.90;;;;;;6314618;28;20469;-59
2023/04/01 03:01:00;;;;;;;4.00;3.70;;;10.00;99.90;;;;;;6325071;28;20464;-59
2023/04/01 03:04:03;;;;;;;3.63;3.33;;;10.00;99.90;;;;;;6319391;28;20555;-59
2023/04/01 03:07:06;;;;;;;3.30;2.80;;;10.00;99.90;;;;;;6312028;28;20483;-59
2023/04/01 03:10:11;;;;;;;3.90;2.57;;;10.00;99.90;;;;;;6314460;28;20583;-59
2023/04/01 03:13:14;;;;;;;3.40;3.00;;;10.10;99.90;;;;;;6304480;28;20923;-59
2023/04/01 03:16:18;;;;;;;3.00;2.70;;;10.10;99.90;;;;;;6301666;28;20481;-59
2023/04/01 03:19:21;;;;;;;3.63;3.27;;;10.10;99.90;;;;;;6301966;28;20469;-58
2023/04/01 03:22:24;;;;;;;4.03;2.60;;;10.10;99.90;;;;;;6301587;28;20828;-59
2023/04/01 03:25:30;;;;;;;3.33;3.13;;;10.10;99.90;;;;;;6301285;28;20466;-59
2023/04/01 03:28:34;;;;;;;4.40;4.10;;;10.10;99.90;;;;;;6301685;28;20549;-59
2023/04/01 03:31:37;;;;;;;3.87;3.57;;;10.10;99.90;;;;;;6301649;28;20484;-59
2023/04/01 03:34:40;;;;;;;4.90;4.30;;;10.20;99.90;;;;;;6300898;28;20492;-59
2023/04/01 03:37:43;;;;;;;3.93;3.13;;;10.10;99.90;;;;;;6301279;28;20488;-59
2023/04/01 03:40:48;;;;;;;4.80;2.80;;;10.20;99.90;;;;;;6300775;28;20457;-59
2023/04/01 03:43:51;;;;;;;3.00;2.70;;;10.20;99.90;;;;;;6300436;28;20469;-58
2023/04/01 03:46:54;;;;;;;2.97;2.77;;;10.10;99.90;;;;;;6300717;28;20530;-59
2023/04/01 03:49:57;;;;;;;3.30;3.00;;;10.10;99.90;;;;;;6301134;28;20477;-59
2023/04/01 03:53:00;;;;;;;4.70;3.53;;;10.10;99.90;;;;;;6300810;28;20492;-58
2023/04/01 03:56:07;;;;;;;4.60;2.93;;;10.10;99.90;;;;;;6299597;28;20477;-60
2023/04/01 03:59:10;;;;;;;3.30;2.90;;;10.10;99.90;;;;;;6303081;28;20476;-60
2023/04/01 04:02:13;;;;;;;4.07;2.60;;;10.10;99.90;;;;;;6300460;28;21000;-60
2023/04/01 04:05:17;;;;;;;4.37;3.00;;;10.10;99.90;;;;;;6300543;28;20550;-59
2023/04/01 04:08:21;;;;;;;3.03;2.83;;;10.10;99.90;;;;;;6300563;28;20954;-58
2023/04/01 04:11:26;;;;;;;3.90;3.60;;;10.00;99.90;;;;;;6300954;28;20481;-59
2023/04/01 04:14:29;;;;;;;4.73;4.33;;;10.00;99.90;;;;;;6301142;28;20834;-59
2023/04/01 04:17:32;;;;;;;5.23;4.73;;;10.00;99.90;;;;;;6298338;28;20871;-59
2023/04/01 04:20:36;;;;;;;5.97;5.13;;;10.00;99.90;;;;;;6300504;28;20447;-59
2023/04/01 04:23:39;;;;;;;5.47;4.83;;;9.90;99.90;;;;;;6300381;28;20491;-60
2023/04/01 04:26:43;;;;;;;6.50;5.90;;;9.90;99.90;;;;;;6300174;28;20464;-59
2023/04/01 04:29:47;;;;;;;7.23;6.50;;;9.90;99.90;;;;;;6300256;28;20448;-58
2023/04/01 04:32:50;;;;;;;6.20;5.67;;;9.80;99.90;;;;;;6300005;28;20489;-58
2023/04/01 04:35:56;;;;;;;7.53;6.90;;;9.80;99.90;;;;;;6300212;28;20465;-59
2023/04/01 04:39:01;;;;;;;7.07;6.27;;;9.70;99.90;;;;;;6300083;28;20515;-59
2023/04/01 04:42:06;;;;;;;7.00;6.40;;;9.70;99.90;;;;;;6300222;28;20470;-59
2023/04/01 04:45:11;;;;;;;8.37;6.43;;;9.70;99.90;;;;;;6299757;28;20473;-59
2023/04/01 04:48:18;;;;;;;6.60;6.10;;;9.70;99.90;;;;;;6300490;28;20477;-59
2023/04/01 04:51:22;;;;;;;6.07;5.37;;;9.80;99.90;;;;;;6300444;28;20469;-60
2023/04/01 04:54:25;;;;;;;10.20;4.67;;;9.80;99.90;;;;;;6299620;28;20954;-59
2023/04/01 04:57:30;;;;;;;5.63;5.20;;;9.90;99.90;;;;;;6299455;28;20797;-59
2023/04/01 05:00:33;;;;;;;6.17;5.63;;;9.90;99.90;;;;;;6299600;28;20801;-59
2023/04/01 05:03:37;;;;;;;7.80;5.40;;;10.00;99.90;;;;;;6299518;28;20469;-59
2023/04/01 05:06:40;;;;;;;4.83;4.43;;;10.00;99.90;;;;;;6300572;28;20806;-59
2023/04/01 05:09:45;;;;;;;4.40;3.60;;;10.00;99.90;;;;;;6304833;28;21008;-59
2023/04/01 05:12:50;;;;;;;8.33;3.80;;;10.10;99.90;;;;;;6304668;28;20563;-59
2023/04/01 05:15:53;;;;;;;3.30;3.00;;;10.10;99.90;;;;;;6305258;28;20476;-59
2023/04/01 05:18:56;;;;;;;3.40;3.10;;;10.20;99.90;;;;;;6304474;28;20480;-59
2023/04/01 05:21:59;;;;;;;5.40;3.40;;;10.10;99.90;;;;;;6304564;28;20476;-59
2023/04/01 05:25:03;;;;;;;3.33;3.03;;;10.10;99.90;;;;;;6304321;28;20479;-60
2023/04/01 05:28:07;;;;;;;3.97;3.67;;;10.10;99.90;;;;;;6304367;28;20484;-59
2023/04/01 05:31:10;;;;;;;3.70;3.40;;;10.20;99.90;;;;;;6303862;28;20469;-59
2023/04/01 05:34:14;;;;;;;3.43;3.13;;;10.40;99.90;;;;;;6303739;28;20480;-59
2023/04/01 05:37:18;;;;;;;3.33;3.07;;;10.40;99.90;;;;;;6304197;28;20963;-59
2023/04/01 05:40:21;;;;;;;5.40;3.40;;;10.40;99.90;;;;;;6304762;28;20852;-59
2023/04/01 05:43:25;;;;;;;3.90;3.60;;;10.50;99.90;;;;;;6304389;28;20473;-61
2023/04/01 05:46:29;;;;;;;9.60;3.33;;;10.50;99.90;;;;;;6304152;28;20472;-60
2023/04/01 05:49:33;;;;;;;4.70;3.53;;;10.50;99.90;;;;;;6303907;28;20473;-59
2023/04/01 05:52:37;;;;;;;3.93;3.60;;;10.60;99.90;;;;;;6303635;28;20485;-59
2023/04/01 05:55:40;;;;;;;6.97;4.10;;;10.60;99.90;;;;;;6304002;28;20950;-59
2023/04/01 05:58:51;;;;;;;5.90;3.43;;;10.70;99.90;;;;;;6303532;28;20464;-60
2023/04/01 06:01:54;;;;;;;3.60;3.30;;;10.80;99.90;;;;;;6303682;28;20468;-60
2023/04/01 06:05:12;;;;;;;3.40;3.10;;;10.90;99.90;;;;;;6303170;28;20473;-59
2023/04/01 06:08:18;;;;;;;5.60;4.20;;;11.00;99.90;;;;;;6303538;28;20461;-59
2023/04/01 06:11:33;;;;;;;4.50;4.10;;;11.10;99.90;;;;;;6303159;28;20479;-59
2023/04/01 06:14:47;;;;;;;3.97;3.50;;;11.20;99.90;;;;;;6303040;28;20461;-59
2023/04/01 06:18:13;;;;;;;4.27;3.87;;;11.40;99.90;;;;;;6301799;28;20453;-59
2023/04/01 06:21:43;;;;;;;4.03;3.70;;;11.50;99.90;;;;;;6303240;28;20527;-60
2023/04/01 06:25:09;;;;;;;4.50;3.87;;;11.60;99.90;;;;;;6296620;28;20488;-60
2023/04/01 06:28:45;;;;;;;3.37;3.13;;;11.80;99.90;;;;;;6314909;28;20483;-59
2023/04/01 06:32:12;;;;;;;3.90;3.60;;;12.00;99.90;;;;;;6328109;28;20479;-58
2023/04/01 06:35:25;;;;;;;4.00;3.70;;;12.20;99.90;;;;;;6327568;28;20465;-58
2023/04/01 06:38:46;;;;;;;3.57;2.80;;;12.70;99.90;;;;;;6327698;28;20476;-60
2023/04/01 06:42:10;;;;;;;3.83;2.67;;;13.90;99.90;;;;;;6327741;28;20453;-59
2023/04/01 06:45:30;;;;;;;2.77;2.40;;;15.50;99.70;;;;;;6327439;28;20834;-59
2023/04/01 06:48:47;;;;;;;3.17;2.87;;;16.90;96.20;;;;;;6327949;28;20556;-58
2023/04/01 06:51:57;;;;;;;2.30;2.10;;;17.60;93.20;;;;;;6327596;28;20461;-59
2023/04/01 06:55:09;;;;;;;3.17;2.00;;;17.60;91.30;;;;;;6326830;28;20815;-60
2023/04/01 06:58:19;;;;;;;5.07;2.87;;;17.30;90.70;;;;;;6326844;28;20472;-59
2023/04/01 07:01:28;;;;;;;2.07;1.87;;;16.80;90.80;;;;;;6326706;28;20827;-59
2023/04/01 07:04:36;;;;;;;2.10;1.90;;;16.40;90.80;;;;;;6326976;28;20460;-59
2023/04/01 07:07:44;;;;;;;4.63;2.70;;;16.00;90.90;;;;;;6326445;28;20476;-59
2023/04/01 07:10:51;;;;;;;3.90;3.17;;;15.60;91.50;;;;;;6327020;28;20483;-58
2023/04/01 07:13:56;;;;;;;3.60;2.77;;;15.50;92.20;;;;;;6326460;28;20495;-58
2023/04/01 07:17:06;;;;;;;3.03;2.60;;;15.80;92.20;;;;;;6326643;28;20483;-59
2023/04/01 07:20:18;;;;;;;2.80;2.40;;;16.10;92.10;;;;;;6326299;28;20869;-59
2023/04/01 07:23:25;;;;;;;4.07;3.23;;;16.40;91.30;;;;;;6326208;28;20481;-61
2023/04/01 07:26:28;;;;;;;3.63;3.33;;;16.50;90.60;;;;;;6325826;28;20472;-61
2023/04/01 07:29:32;;;;;;;3.50;2.67;;;16.40;90.30;;;;;;6316101;28;20479;-60
2023/04/01 07:32:43;;;;;;;2.33;2.13;;;17.00;89.40;;;;;;6325310;28;20456;-60
2023/04/01 07:35:55;;;;;;;2.37;2.23;;;16.90;87.30;;;;;;6325099;28;20460;-60
2023/04/01 07:39:09;;;;;;;2.60;2.13;;;16.70;86.90;;;;;;6326365;28;20461;-62
2023/04/01 07:42:20;;;;;;;4.73;3.00;;;17.20;86.90;;;;;;6326580;28;20468;-59
2023/04/01 07:45:28;;;;;;;4.10;2.40;;;17.20;85.20;;;;;;6325911;28;20548;-59
2023/04/01 07:48:39;;;;;;;4.90;2.60;;;17.40;85.90;;;;;;6325598;28;20479;-60
2023/04/01 07:51:51;;;;;;;3.50;2.47;;;18.10;84.70;;;;;;6325474;28;20472;-59
2023/04/01 07:55:04;;;;;;;2.30;1.83;;;19.10;81.20;;;;;;6321440;28;20320;-59
2023/04/01 07:58:20;;;;;;;2.67;2.20;;;20.70;75.20;;;;;;6325073;28;20238;-61
2023/04/01 08:01:31;;;;;;;2.43;2.23;;;22.30;65.30;;;;;;6325447;28;20676;-62
2023/04/01 08:04:52;;;;;;;4.27;2.80;;;22.30;62.90;;;;;;6321849;28;20226;-60
2023/04/01 08:08:09;;;;;;;4.13;3.80;;;23.70;59.40;;;;;;6324933;28;20305;-61
2023/04/01 08:11:22;;;;;;;5.37;4.87;;;26.70;54.10;;;;;;6325345;28;20232;-61
2023/04/01 08:14:35;;;;;;;4.40;3.90;;;29.00;44.70;;;;;;6324790;28;20230;-61
2023/04/01 08:17:51;;;;;;;4.00;3.05;;;31.20;38.20;;;;;;6324866;28;20236;-62
2023/04/01 08:20:58;;;;;;;4.53;4.13;;;33.10;32.50;;;;;;6325034;28;20240;-61
2023/04/01 08:24:12;;;;;;;5.38;3.55;;;33.40;30.40;;;;;;6307937;28;20253;-60
2023/04/01 08:27:21;;;;;;;3.80;2.83;;;34.30;28.90;;;;;;6299801;28;20230;-60
2023/04/01 08:30:26;;;;;;;3.88;3.33;;;34.30;27.50;;;;;;6295203;28;20226;-61
2023/04/01 08:33:30;;;;;;;3.42;3.13;;;33.30;27.80;;;;;;6299239;28;20660;-61
2023/04/01 08:36:38;;;;;;;3.88;3.05;;;32.60;28.10;;;;;;6300063;28;20234;-62
2023/04/01 08:39:46;;;;;;;2.92;2.72;;;32.70;28.00;;;;;;6299587;28;20238;-61
2023/04/01 08:43:06;;;;;;;2.63;2.42;;;33.50;28.00;;;;;;6298707;28;20234;-62
2023/04/01 08:46:47;;;;;;;2.55;2.35;;;32.50;26.90;;;;;;6299228;28;20231;-61
2023/04/01 08:50:17;;;;;;;2.60;2.40;;;31.50;27.50;;;;;;6198994;28;20236;-61
2023/04/01 08:53:35;;;;;;;3.03;2.73;;;29.80;28.90;;;;;;6256355;28;20241;-61
2023/04/01 08:56:43;;;;;;;3.93;3.53;;;28.20;31.60;;;;;;6298794;28;20234;-62
2023/04/01 08:59:57;;;;;;;2.70;2.50;;;26.50;34.30;;;;;;6299594;28;20206;-60
2023/04/01 09:03:20;;;;;;;4.67;3.40;;;25.40;36.00;;;;;;6298970;28;20228;-60
2023/04/01 09:06:32;;;;;;;3.80;2.80;;;24.20;38.20;;;;;;6299176;28;20277;-60
2023/04/01 09:10:02;;;;;;;5.10;2.97;;;23.40;40.00;;;;;;6299210;28;20242;-61
2023/04/01 09:13:27;;;;;;;3.37;2.77;;;22.90;41.30;;;;;;6291330;28;20230;-59
2023/04/01 09:16:55;;;;;;;2.80;2.50;;;21.60;43.40;;;;;;6298768;28;20231;-60
2023/04/01 09:20:18;;;;;;;2.73;2.50;;;20.80;44.70;;;;;;6298840;28;20231;-59
2023/04/01 09:23:45;;;;;;;4.13;2.20;;;20.10;46.40;;;;;;6298932;28;20227;-59
2023/04/01 09:27:06;;;;;;;4.63;2.23;;;19.70;47.40;;;;;;6299000;28;20222;-59
2023/04/01 09:30:43;;;;;;;2.70;2.50;;;19.50;48.60;;;;;;6298693;28;20224;-58
2023/04/01 09:34:26;;;;;;;3.97;3.67;;;19.00;50.10;;;;;;6298971;28;20231;-59
2023/04/01 09:37:40;;;;;;;2.57;2.30;;;18.80;50.80;;;;;;6296592;28;20246;-58
2023/04/01 09:40:52;;;;;;;3.40;2.43;;;18.80;51.70;;;;;;6298614;28;20545;-58
2023/04/01 09:44:16;;;;;;;3.63;2.67;;;18.90;51.00;;;;;;6298726;28;20222;-58
2023/04/01 09:47:43;;;;;;;2.13;1.90;;;19.50;50.90;;;;;;6297438;28;20246;-58
2023/04/01 09:50:54;;;;;;;1.90;1.80;;;19.70;50.40;;;;;;6297285;28;20886;-57
2023/04/01 09:54:09;;;;;;;2.10;1.90;;;20.00;50.20;;;;;;6301946;28;20231;-59
2023/04/01 09:57:49;;;;;;;3.87;2.17;;;20.00;50.00;;;;;;6302935;28;20234;-59
2023/04/01 10:01:18;;;;;;;2.30;2.07;;;20.00;49.70;;;;;;6317882;28;20271;-59
2023/04/01 10:04:53;;;;;;;5.07;4.60;;;19.80;49.40;;;;;;6284789;28;20225;-59
2023/04/01 10:08:23;;;;;;;1.80;1.70;;;19.70;49.90;;;;;;6328024;28;20231;-59
2023/04/01 10:12:00;;;;;;;2.00;1.20;;;19.40;49.80;;;;;;6327957;28;20248;-59
2023/04/01 10:15:44;;;;;;;1.80;1.70;;;19.30;50.10;;;;;;6324421;28;20869;-60
2023/04/01 10:19:09;;;;;;;1.90;1.37;;;19.10;49.80;;;;;;6293146;28;20584;-59
2023/04/01 10:22:35;;;;;;;2.47;1.40;;;18.70;50.60;;;;;;6320499;28;20282;-60
2023/04/01 10:26:28;;;;;;;1.63;1.20;;;18.50;52.00;;;;;;6327374;28;20234;-60
2023/04/01 10:29:59;;;;;;;0.60;0.40;;;18.30;51.80;;;;;;6243639;28;20231;-59
2023/04/01 10:33:27;;;;;;;0.50;0.30;;;18.10;47.50;;;;;;6302523;28;20234;-59
2023/04/01 10:36:51;;;;;;;0.80;0.50;;;17.90;44.40;;;;;;6270330;28;20324;-59
2023/04/01 10:40:31;;;;;;;0.60;0.40;;;17.80;44.70;;;;;;6318377;28;20570;-59
2023/04/01 10:44:16;;;;;;;0.70;0.70;;;18.10;44.80;;;;;;6327344;28;20478;-59
2023/04/01 10:47:55;;;;;;;1.23;0.60;;;18.50;45.60;;;;;;6315403;28;20257;-60
2023/04/01 10:51:17;;;;;;;2.87;0.97;;;18.70;44.30;;;;;;6327277;28;20224;-59
2023/04/01 10:54:55;;;;;;;1.53;0.50;;;18.90;44.70;;;;;;6326456;28;20235;-60
2023/04/01 10:58:42;;;;;;;1.03;0.60;;;19.10;43.00;;;;;;6312642;28;20242;-59
2023/04/01 11:02:30;;;;;;;0.73;0.53;;;19.10;42.70;;;;;;6301656;28;20223;-58
2023/04/01 11:06:22;;;;;;;1.47;0.40;;;19.10;42.70;;;;;;6300995;28;20234;-59
2023/04/01 11:09:58;;;;;;;0.63;0.30;;;19.10;42.20;;;;;;6176498;28;20699;-61
2023/04/01 11:13:30;;;;;;;0.77;0.40;;;19.20;41.60;;;;;;6301474;28;20233;-58
2023/04/01 11:16:57;;;;;;;0.60;0.53;;;19.20;41.50;;;;;;6298178;28;20234;-58
2023/04/01 11:20:26;;;;;;;0.60;0.30;;;19.20;42.40;;;;;;6309214;28;20227;-58
2023/04/01 11:23:52;;;;;;;0.60;0.53;;;19.20;41.80;;;;;;6307482;28;20222;-58
2023/04/01 11:27:21;;;;;;;0.50;0.40;;;19.40;42.10;;;;;;6312317;28;20241;-59
2023/04/01 11:30:35;;;;;;;0.60;0.40;;;19.40;40.90;;;;;;6327107;28;20314;-58
2023/04/01 11:33:44;;;;;;;0.63;0.40;;;19.40;41.40;;;;;;6316396;28;20219;-58
2023/04/01 11:36:59;;;;;;;0.60;0.30;;;19.40;41.00;;;;;;6314917;28;20577;-59
2023/04/01 11:40:15;;;;;;;0.50;0.30;;;19.30;40.40;;;;;;6312894;28;20301;-58
2023/04/01 11:43:25;;;;;;;0.53;0.30;;;19.20;39.80;;;;;;6307874;28;20223;-58
2023/04/01 11:46:50;;;;;;;0.50;0.30;;;19.20;40.20;;;;;;6310994;28;20559;-58
2023/04/01 11:50:05;;;;;;;0.70;0.50;;;19.40;40.90;;;;;;6313868;28;20234;-59
2023/04/01 11:53:20;;;;;;;0.50;0.30;;;19.60;40.40;;;;;;6326105;28;20249;-59
2023/04/01 11:56:41;;;;;;;0.93;0.90;;;19.80;40.20;;;;;;6324725;28;20238;-58
2023/04/01 12:00:07;;;;;;;0.50;0.30;;;19.80;40.30;;;;;;6325484;28;20218;-59
2023/04/01 12:03:31;;;;;;;0.70;0.40;;;19.90;39.70;;;;;;6325479;28;20233;-59
2023/04/01 12:06:43;;;;;;;1.80;0.40;;;20.00;39.80;;;;;;6324953;28;20245;-58
2023/04/01 12:09:54;;;;;;;0.60;0.37;;;20.10;39.50;;;;;;6325735;28;20230;-58
2023/04/01 12:13:05;;;;;;;0.87;0.33;;;20.30;39.20;;;;;;6325378;28;20230;-59
2023/04/01 12:16:24;;;;;;;0.80;0.50;;;20.40;37.90;;;;;;6324987;28;20234;-59
2023/04/01 12:19:37;;;;;;;0.70;0.47;;;20.40;37.60;;;;;;6324781;28;20313;-59
2023/04/01 12:22:50;;;;;;;0.50;0.40;;;20.40;37.40;;;;;;6299457;28;20230;-59
2023/04/01 12:26:11;;;;;;;0.50;0.30;;;20.40;37.00;;;;;;6299629;28;20227;-59
2023/04/01 12:29:45;;;;;;;0.90;0.40;;;20.10;36.30;;;;;;6299653;28;20243;-59
2023/04/01 12:33:05;;;;;;;1.00;0.43;;;20.10;36.90;;;;;;6299154;28;20622;-59
2023/04/01 12:36:19;;;;;;;1.40;0.83;;;20.20;38.20;;;;;;6298482;28;20238;-59
2023/04/01 12:39:39;;;;;;;0.80;0.40;;;20.30;37.80;;;;;;6299313;28;20692;-59
2023/04/01 12:43:02;;;;;;;0.50;0.27;;;20.40;36.70;;;;;;6299561;28;20238;-59
2023/04/01 12:46:15;;;;;;;1.10;0.70;;;20.40;36.40;;;;;;6299043;28;20235;-59
2023/04/01 12:49:39;;;;;;;0.60;0.40;;;20.40;36.20;;;;;;6299509;28;20245;-59
2023/04/01 12:53:03;;;;;;;1.37;0.30;;;20.30;36.80;;;;;;6299387;28;20235;-59
2023/04/01 12:56:15;;;;;;;0.63;0.37;;;20.10;36.80;;;;;;6298927;28;20231;-59
2023/04/01 12:59:36;;;;;;;1.60;0.77;;;20.00;37.00;;;;;;6299780;28;20246;-59
2023/04/01 13:02:51;;;;;;;0.77;0.50;;;20.00;36.90;;;;;;6298845;28;20649;-58
2023/04/01 13:06:21;;;;;;;0.70;0.60;;;19.90;36.00;;;;;;6299241;28;20281;-59
2023/04/01 13:09:45;;;;;;;0.70;0.50;;;19.70;36.10;;;;;;6277219;28;20253;-59
2023/04/01 13:13:19;;;;;;;0.97;0.40;;;19.40;36.10;;;;;;6324109;28;20309;-59
2023/04/01 13:16:27;;;;;;;1.67;0.40;;;19.20;36.70;;;;;;6313924;28;20236;-58
2023/04/01 13:19:37;;;;;;;3.10;2.40;;;19.10;37.10;;;;;;6323876;28;20701;-58
2023/04/01 13:22:58;;;;;;;7.60;6.93;;;19.00;36.50;;;;;;6324353;28;20230;-59
2023/04/01 13:26:11;;;;;;;4.70;3.77;;;19.00;35.60;;;;;;6323869;28;20299;-58
2023/04/01 13:29:20;;;;;;;4.63;3.43;;;18.90;35.70;;;;;;6327912;28;20226;-60
2023/04/01 13:32:33;;;;;;;1.87;1.77;;;18.80;35.80;;;;;;6328853;28;20245;-59
2023/04/01 13:35:54;;;;;;;1.10;0.80;;;18.80;36.40;;;;;;6328727;28;20222;-58
2023/04/01 13:39:16;;;;;;;0.60;0.40;;;18.90;36.30;;;;;;6329623;28;20648;-58
2023/04/01 13:42:26;;;;;;;0.70;0.60;;;18.90;35.90;;;;;;6328646;28;20245;-59
2023/04/01 13:45:43;;;;;;;4.20;3.60;;;19.10;35.50;;;;;;6328634;28;20230;-59
2023/04/01 13:49:08;;;;;;;2.87;2.67;;;19.20;34.90;;;;;;6328502;28;20233;-59
2023/04/01 13:52:31;;;;;;;1.33;0.70;;;19.40;34.70;;;;;;6319218;28;20230;-59
2023/04/01 13:55:46;;;;;;;0.40;0.30;;;19.60;34.30;;;;;;6327919;28;20246;-60
2023/04/01 13:59:03;;;;;;;0.50;0.30;;;19.70;33.30;;;;;;6328338;28;20245;-59
2023/04/01 14:02:32;;;;;;;0.50;0.30;;;19.90;33.40;;;;;;6328031;28;20548;-60
2023/04/01 14:05:51;;;;;;;0.90;0.40;;;20.00;34.10;;;;;;6325284;28;20222;-60
2023/04/01 14:09:12;;;;;;;1.60;0.30;;;20.20;34.10;;;;;;6328158;28;20219;-60
2023/04/01 14:12:27;;;;;;;1.00;0.70;;;20.40;34.00;;;;;;6327667;28;20256;-61
2023/04/01 14:15:43;;;;;;;0.70;0.40;;;20.40;34.20;;;;;;6328024;28;20307;-60
2023/04/01 14:19:09;;;;;;;0.50;0.30;;;20.40;33.80;;;;;;6328081;28;20230;-60
2023/04/01 14:22:24;;;;;;;1.27;1.00;;;20.40;32.60;;;;;;6328485;28;20234;-60
2023/04/01 14:25:51;;;;;;;1.60;0.73;;;20.30;32.90;;;;;;6328128;28;20280;-61
2023/04/01 14:29:02;;;;;;;0.60;0.40;;;20.20;33.00;;;;;;6327477;28;20226;-60
2023/04/01 14:32:13;;;;;;;1.10;0.57;;;20.20;33.00;;;;;;6327263;28;20526;-61
2023/04/01 14:35:26;;;;;;;0.70;0.40;;;20.10;32.90;;;;;;6327165;28;20568;-60
2023/04/01 14:38:52;;;;;;;0.70;0.47;;;20.00;33.10;;;;;;6326914;28;20223;-60
2023/04/01 14:42:06;;;;;;;0.57;0.27;;;19.90;33.80;;;;;;6326813;28;20636;-60
2023/04/01 14:45:46;;;;;;;1.67;0.67;;;19.80;34.00;;;;;;6327053;28;20729;-61
2023/04/01 14:48:54;;;;;;;0.93;0.70;;;19.70;34.30;;;;;;6327593;28;20657;-60
2023/04/01 14:52:06;;;;;;;0.70;0.50;;;19.60;33.80;;;;;;6326930;28;20223;-61
2023/04/01 14:55:28;;;;;;;0.60;0.47;;;19.50;33.20;;;;;;6323375;28;20283;-60
2023/04/01 14:58:45;;;;;;;0.60;0.50;;;19.40;34.20;;;;;;6326829;28;20266;-61
2023/04/01 15:01:55;;;;;;;0.53;0.47;;;19.30;34.60;;;;;;6326680;28;20694;-60
2023/04/01 15:05:11;;;;;;;0.90;0.40;;;19.30;34.80;;;;;;6311880;28;20684;-61
2023/04/01 15:08:19;;;;;;;0.60;0.60;;;19.20;33.60;;;;;;6301092;28;20251;-61
2023/04/01 15:11:37;;;;;;;0.80;0.30;;;19.10;34.00;;;;;;6301323;28;20237;-61
2023/04/01 15:14:53;;;;;;;0.50;0.40;;;19.10;33.90;;;;;;6301043;28;20223;-63
2023/04/01 15:18:09;;;;;;;0.43;0.30;;;19.20;34.10;;;;;;6301063;28;20656;-62
2023/04/01 15:21:29;;;;;;;1.13;0.40;;;19.30;34.20;;;;;;6300874;28;20229;-63
2023/04/01 15:24:44;;;;;;;0.80;0.80;;;19.30;34.60;;;;;;6300934;28;20229;-63
2023/04/01 15:27:52;;;;;;;0.83;0.40;;;19.30;34.20;;;;;;6311829;28;20237;-59
2023/04/01 15:31:01;;;;;;;2.20;1.57;;;19.30;34.30;;;;;;6326170;28;20245;-59
2023/04/01 15:34:20;;;;;;;1.80;0.60;;;19.10;34.20;;;;;;6325508;28;20226;-59
2023/04/01 15:37:38;;;;;;;0.53;0.47;;;18.90;34.50;;;;;;6326664;28;20226;-60
2023/04/01 15:40:48;;;;;;;0.63;0.30;;;18.60;34.30;;;;;;6314325;28;20695;-60
2023/04/01 15:43:52;;;;;;;0.90;0.50;;;18.60;34.10;;;;;;6316784;28;20234;-60
2023/04/01 15:46:58;;;;;;;0.60;0.47;;;18.60;34.30;;;;;;6311181;28;20234;-60
2023/04/01 15:50:28;;;;;;;0.60;0.40;;;18.60;34.30;;;;;;6311018;28;20242;-60
2023/04/01 15:57:18;;;;;;;0.60;0.47;;;18.30;34.80;;;;;;6343886;27;20541;-62
2023/04/01 16:00:29;;;;;;;0.97;0.67;;;17.80;35.30;;;;;;6268980;28;20462;-61
2023/04/01 16:03:40;;;;;;;0.60;0.60;;;17.90;35.20;;;;;;6280288;28;20466;-61
2023/04/01 16:06:57;;;;;;;0.70;0.50;;;18.10;35.10;;;;;;6293621;28;20470;-62
2023/04/01 16:10:11;;;;;;;1.33;0.63;;;18.20;35.40;;;;;;6286956;28;20477;-62
2023/04/01 16:13:27;;;;;;;0.73;0.43;;;18.10;35.50;;;;;;6277399;28;20470;-62
2023/04/01 16:16:41;;;;;;;0.80;0.40;;;17.80;35.60;;;;;;6276495;28;20234;-62
2023/04/01 16:19:54;;;;;;;0.57;0.37;;;17.60;35.70;;;;;;6266640;28;20478;-63
2023/04/01 16:23:05;;;;;;;1.13;0.73;;;17.50;36.10;;;;;;6269151;28;20470;-62
2023/04/01 16:26:15;;;;;;;0.97;0.57;;;17.40;36.60;;;;;;6270652;28;20466;-63
2023/04/01 16:29:27;;;;;;;0.97;0.40;;;17.30;36.90;;;;;;6271531;28;20478;-62
2023/04/01 16:32:38;;;;;;;1.53;0.50;;;17.10;37.10;;;;;;6271231;28;20512;-63
2023/04/01 16:35:47;;;;;;;0.80;0.77;;;17.00;37.30;;;;;;6295780;28;20478;-62
2023/04/01 16:39:10;;;;;;;0.80;0.70;;;16.90;38.00;;;;;;6294362;28;20804;-62
2023/04/01 16:42:34;;;;;;;1.20;0.60;;;16.90;38.40;;;;;;6270904;28;20478;-62
2023/04/01 16:45:44;;;;;;;1.07;0.90;;;16.80;38.80;;;;;;6270750;28;20477;-63
2023/04/01 16:49:00;;;;;;;1.33;0.90;;;16.70;39.10;;;;;;6270505;28;20473;-62
2023/04/01 16:52:34;;;;;;;2.23;1.10;;;16.60;39.40;;;;;;6270766;28;20462;-62